Time;durP1;ratioP1;P1;durP2;ratioP2;P2;SDS_P1;SDS_P2;PMS_P1;PMS_P2;Temp;Humidity;BMP_temperature;BMP_pressure;BME280_temperature;BME280_humidity;BME280_pressure;Samples;Min_cycle;Max_cycle;Signal;HPM_P1;HPM_P2
2021/11/30 00:01:11;;;;;;;13.53;9.10;;;5.00;99.90;;;;;;2613415;47;20451;-71
2021/11/30 00:03:38;;;;;;;15.67;10.97;;;5.00;99.90;;;;;;2611886;54;20423;-72
2021/11/30 00:06:06;;;;;;;16.70;10.90;;;5.00;99.90;;;;;;2611577;54;20972;-72
2021/11/30 00:08:32;;;;;;;13.23;9.80;;;5.00;99.90;;;;;;2614030;31;20931;-72
2021/11/30 00:11:00;;;;;;;12.27;8.53;;;5.00;99.90;;;;;;2613335;51;20442;-72
2021/11/30 00:13:28;;;;;;;16.27;10.23;;;5.00;99.90;;;;;;2613415;54;20404;-72
2021/11/30 00:15:55;;;;;;;15.40;10.07;;;4.90;99.90;;;;;;2614675;39;20783;-73
2021/11/30 00:18:23;;;;;;;21.80;7.57;;;4.90;99.90;;;;;;2613816;54;20404;-73
2021/11/30 00:20:49;;;;;;;12.30;10.13;;;4.80;99.90;;;;;;2612937;54;20490;-71
2021/11/30 00:23:16;;;;;;;15.67;9.20;;;4.80;99.90;;;;;;2613957;47;20971;-72
2021/11/30 00:25:42;;;;;;;13.20;9.10;;;4.90;99.90;;;;;;2612696;54;20495;-72
2021/11/30 00:28:09;;;;;;;20.03;11.40;;;4.90;99.90;;;;;;2614925;39;20789;-72
2021/11/30 00:30:36;;;;;;;16.20;9.27;;;4.90;99.90;;;;;;2612386;54;20506;-73
2021/11/30 00:33:03;;;;;;;12.10;6.87;;;4.80;99.90;;;;;;2613960;54;20463;-72
2021/11/30 00:35:30;;;;;;;13.73;10.70;;;4.80;99.90;;;;;;2613801;39;22280;-72
2021/11/30 00:37:57;;;;;;;13.63;8.63;;;4.80;99.90;;;;;;2613976;54;20411;-71
2021/11/30 00:40:23;;;;;;;16.50;11.03;;;4.70;99.90;;;;;;2611117;54;20434;-74
2021/11/30 00:42:49;;;;;;;20.07;9.77;;;4.70;99.90;;;;;;2613025;54;20524;-72
2021/11/30 00:45:18;;;;;;;15.80;7.30;;;4.80;99.90;;;;;;2610677;47;20542;-73
2021/11/30 00:50:31;;;;;;;11.00;6.23;;;4.70;99.90;;;;;;2612177;54;20437;-71
2021/11/30 00:52:56;;;;;;;11.70;8.90;;;4.60;99.90;;;;;;2612860;47;20418;-72
2021/11/30 00:55:22;;;;;;;19.77;8.90;;;4.60;99.90;;;;;;2612184;54;21021;-72
2021/11/30 00:57:49;;;;;;;10.97;7.50;;;4.60;99.90;;;;;;2611164;54;20153;-72
2021/11/30 01:00:18;;;;;;;13.03;8.43;;;4.60;99.90;;;;;;2608610;54;20972;-71
2021/11/30 01:02:45;;;;;;;12.03;9.90;;;4.50;99.90;;;;;;2611068;54;21087;-73
2021/11/30 01:05:13;;;;;;;14.50;10.27;;;4.60;99.90;;;;;;2611390;54;20601;-72
2021/11/30 01:07:39;;;;;;;10.07;8.70;;;4.50;99.90;;;;;;2611830;47;21020;-72
2021/11/30 01:10:09;;;;;;;9.93;8.00;;;4.50;99.90;;;;;;2612742;54;20411;-71
2021/11/30 01:12:37;;;;;;;8.30;6.50;;;4.50;99.90;;;;;;2613010;46;20450;-71
2021/11/30 01:15:06;;;;;;;7.53;6.47;;;4.50;99.90;;;;;;2612789;54;20411;-74
2021/11/30 01:17:32;;;;;;;9.80;8.63;;;4.50;99.90;;;;;;2612161;54;21075;-72
2021/11/30 01:19:58;;;;;;;15.83;10.23;;;4.50;99.90;;;;;;2611325;54;20398;-72
2021/11/30 01:22:23;;;;;;;14.70;9.77;;;4.50;99.90;;;;;;2610824;54;20153;-73
2021/11/30 01:24:49;;;;;;;15.00;10.03;;;4.50;99.90;;;;;;2612357;39;20545;-72
2021/11/30 01:27:15;;;;;;;13.50;10.87;;;4.40;99.90;;;;;;2612262;47;21951;-72
2021/11/30 01:29:41;;;;;;;16.57;10.10;;;4.40;99.90;;;;;;2613460;54;20150;-72
2021/11/30 01:32:07;;;;;;;9.20;7.83;;;4.40;99.90;;;;;;2613181;47;20455;-71
2021/11/30 01:34:33;;;;;;;9.03;7.17;;;4.50;99.90;;;;;;2613761;47;20279;-73
2021/11/30 01:36:59;;;;;;;9.93;8.73;;;4.50;99.90;;;;;;2613581;39;20835;-73
2021/11/30 01:39:25;;;;;;;18.47;10.63;;;4.50;99.90;;;;;;2614766;54;20503;-72
2021/11/30 01:41:52;;;;;;;12.03;10.50;;;4.50;99.90;;;;;;2612856;39;21008;-73
2021/11/30 01:49:34;;;;;;;14.60;10.93;;;4.50;99.90;;;;;;2613390;54;20414;-71
2021/11/30 01:52:03;;;;;;;15.87;10.80;;;4.40;99.90;;;;;;2614240;39;20846;-73
2021/11/30 01:54:29;;;;;;;16.73;13.13;;;4.40;99.90;;;;;;2611944;39;20577;-72
2021/11/30 01:56:56;;;;;;;14.70;9.43;;;4.50;99.90;;;;;;2612506;54;20399;-72
2021/11/30 01:59:21;;;;;;;13.70;9.90;;;4.50;99.90;;;;;;2612009;39;20531;-70
2021/11/30 02:01:47;;;;;;;11.03;8.70;;;4.50;99.90;;;;;;2613232;54;20522;-72
2021/11/30 02:04:15;;;;;;;12.73;9.77;;;4.40;99.90;;;;;;2611857;54;20515;-72
2021/11/30 02:06:41;;;;;;;19.00;8.90;;;4.40;99.90;;;;;;2613531;54;20131;-71
2021/11/30 02:09:06;;;;;;;13.90;9.83;;;4.30;99.90;;;;;;2612776;39;20809;-71
2021/11/30 02:11:32;;;;;;;12.40;10.10;;;4.30;99.90;;;;;;2613157;54;20155;-73
2021/11/30 02:13:58;;;;;;;14.77;10.17;;;4.30;99.90;;;;;;2612938;47;20167;-72
2021/11/30 02:16:24;;;;;;;23.50;9.30;;;4.20;99.90;;;;;;2613972;54;20439;-72
2021/11/30 02:18:52;;;;;;;12.30;8.13;;;4.10;99.90;;;;;;2614836;39;20795;-72
2021/11/30 02:21:22;;;;;;;15.90;9.10;;;4.10;99.90;;;;;;2613699;54;20411;-72
2021/11/30 02:24:06;;;;;;;10.60;7.80;;;4.00;99.90;;;;;;2611532;54;20375;-73
2021/11/30 02:26:35;;;;;;;11.03;7.33;;;4.00;99.90;;;;;;2613565;54;20973;-72
2021/11/30 02:29:02;;;;;;;13.93;9.07;;;4.00;99.90;;;;;;2611991;54;20424;-71
2021/11/30 02:31:32;;;;;;;14.20;8.87;;;3.90;99.90;;;;;;2614042;54;20551;-72
2021/11/30 02:33:58;;;;;;;12.17;6.93;;;3.90;99.90;;;;;;2612638;54;20412;-73
2021/11/30 02:36:52;;;;;;;14.83;8.57;;;3.90;99.90;;;;;;2614004;54;20388;-72
2021/11/30 02:39:24;;;;;;;10.50;6.67;;;3.80;99.90;;;;;;2612744;54;20467;-74
2021/11/30 02:41:52;;;;;;;7.97;6.10;;;3.60;99.90;;;;;;2611993;39;20811;-73
2021/11/30 02:44:20;;;;;;;6.80;5.70;;;3.50;99.90;;;;;;2612482;54;20442;-73
2021/11/30 02:46:50;;;;;;;8.97;6.50;;;3.50;99.90;;;;;;2613733;51;20454;-73
2021/11/30 02:49:22;;;;;;;12.37;6.23;;;3.40;99.90;;;;;;2613496;54;20375;-74
2021/11/30 02:51:51;;;;;;;9.90;7.23;;;3.30;99.90;;;;;;2611093;54;20387;-74
2021/11/30 02:54:20;;;;;;;12.13;6.70;;;3.30;99.90;;;;;;2611407;47;20451;-71
2021/11/30 02:56:59;;;;;;;20.30;8.13;;;3.20;99.90;;;;;;2614891;54;20499;-73
2021/11/30 02:59:29;;;;;;;8.90;7.20;;;3.30;99.90;;;;;;2613029;54;20392;-74
2021/11/30 03:01:58;;;;;;;17.33;7.20;;;3.20;99.90;;;;;;2613696;54;20414;-72
2021/11/30 03:04:25;;;;;;;11.97;7.63;;;3.20;99.90;;;;;;2612005;54;20518;-72
2021/11/30 03:06:51;;;;;;;15.87;8.77;;;3.20;99.90;;;;;;2613753;47;20966;-72
2021/11/30 03:09:17;;;;;;;19.93;8.27;;;3.10;99.90;;;;;;2612269;39;20896;-73
2021/11/30 03:11:44;;;;;;;9.87;6.77;;;3.10;99.90;;;;;;2613983;54;20448;-73
2021/11/30 03:14:10;;;;;;;13.53;7.03;;;3.10;99.90;;;;;;2612674;54;21060;-72
2021/11/30 03:16:39;;;;;;;13.83;9.10;;;3.10;99.90;;;;;;2614084;54;21050;-73
2021/11/30 03:19:05;;;;;;;17.43;6.27;;;3.10;99.90;;;;;;2612807;54;20453;-71
2021/11/30 03:21:31;;;;;;;13.53;8.00;;;3.00;99.90;;;;;;2614308;46;20443;-73
2021/11/30 03:23:57;;;;;;;11.40;7.40;;;3.00;99.90;;;;;;2611453;54;20566;-71
2021/11/30 03:26:24;;;;;;;11.63;6.60;;;2.90;99.90;;;;;;2614973;39;20820;-74
2021/11/30 03:28:50;;;;;;;15.10;7.10;;;2.90;99.90;;;;;;2611984;54;20985;-72
2021/11/30 03:34:22;;;;;;;8.27;6.10;;;2.90;99.90;;;;;;2612115;54;20403;-74
2021/11/30 03:36:53;;;;;;;9.33;7.23;;;2.80;99.90;;;;;;2610371;47;21185;-75
2021/11/30 03:39:22;;;;;;;8.53;5.93;;;2.90;99.90;;;;;;2610342;54;20474;-74
2021/11/30 03:41:52;;;;;;;11.30;6.20;;;2.80;99.90;;;;;;2608915;54;20387;-74
2021/11/30 03:44:19;;;;;;;8.03;6.80;;;2.90;99.90;;;;;;2609923;54;20398;-74
2021/11/30 03:46:45;;;;;;;8.37;5.50;;;2.80;99.90;;;;;;2609937;54;20395;-73
2021/11/30 03:49:13;;;;;;;10.87;6.60;;;2.80;99.90;;;;;;2609036;54;20399;-71
2021/11/30 03:51:39;;;;;;;7.50;4.53;;;2.80;99.90;;;;;;2611372;54;20419;-74
2021/11/30 03:54:05;;;;;;;8.63;5.00;;;2.80;99.90;;;;;;2612555;39;20868;-73
2021/11/30 03:56:33;;;;;;;7.43;4.17;;;2.80;99.90;;;;;;2612450;54;21176;-73
2021/11/30 03:58:59;;;;;;;8.13;5.87;;;2.80;99.90;;;;;;2612958;54;20940;-73
2021/11/30 04:01:25;;;;;;;5.63;4.33;;;2.80;99.90;;;;;;2611591;54;20436;-73
2021/11/30 04:03:51;;;;;;;6.80;5.70;;;2.80;99.90;;;;;;2611426;54;20138;-72
2021/11/30 04:06:17;;;;;;;4.73;4.20;;;2.90;99.90;;;;;;2613213;54;20892;-73
2021/11/30 04:08:43;;;;;;;8.60;6.00;;;2.80;99.90;;;;;;2612782;54;20939;-71
2021/11/30 04:11:10;;;;;;;38.00;4.60;;;2.80;99.90;;;;;;2613310;54;20390;-74
2021/11/30 04:13:36;;;;;;;8.20;5.33;;;2.80;99.90;;;;;;2613257;54;20158;-73
2021/11/30 04:16:03;;;;;;;4.90;4.03;;;2.90;99.90;;;;;;2613978;54;20389;-73
2021/11/30 04:18:30;;;;;;;7.37;4.10;;;2.90;99.90;;;;;;2612790;54;20940;-72
2021/11/30 04:20:56;;;;;;;7.67;4.97;;;2.90;99.90;;;;;;2612393;54;21169;-72
2021/11/30 04:23:24;;;;;;;6.47;5.80;;;3.00;99.90;;;;;;2612402;54;20459;-73
2021/11/30 04:25:50;;;;;;;7.20;5.70;;;3.10;99.90;;;;;;2611700;47;20182;-72
2021/11/30 04:28:16;;;;;;;6.60;5.60;;;3.20;99.90;;;;;;2611342;54;20395;-72
2021/11/30 04:30:42;;;;;;;5.60;5.00;;;3.30;99.90;;;;;;2612286;54;20968;-72
2021/11/30 04:33:07;;;;;;;5.73;4.33;;;3.40;99.90;;;;;;2610780;54;20281;-73
2021/11/30 04:35:33;;;;;;;4.73;4.20;;;3.50;99.90;;;;;;2612722;39;20610;-74
2021/11/30 04:37:59;;;;;;;6.03;5.47;;;3.50;99.90;;;;;;2611513;54;20250;-72
2021/11/30 04:40:25;;;;;;;4.87;4.00;;;3.60;99.90;;;;;;2611694;54;20719;-72
2021/11/30 04:42:51;;;;;;;7.03;6.20;;;3.70;99.90;;;;;;2611425;54;20154;-72
2021/11/30 04:45:23;;;;;;;6.50;5.37;;;3.70;99.90;;;;;;2612266;51;20429;-72
2021/11/30 04:47:53;;;;;;;7.03;6.20;;;3.90;99.90;;;;;;2614520;54;21031;-72
2021/11/30 04:50:22;;;;;;;4.53;4.20;;;3.90;99.90;;;;;;2613745;54;20884;-74
2021/11/30 04:52:50;;;;;;;4.87;4.23;;;4.00;99.90;;;;;;2611758;54;20407;-73
2021/11/30 04:55:29;;;;;;;6.60;5.30;;;4.00;99.90;;;;;;2614255;54;20496;-72
2021/11/30 04:58:00;;;;;;;4.87;4.43;;;4.10;99.90;;;;;;2615145;39;20815;-72
2021/11/30 05:00:27;;;;;;;6.63;6.00;;;4.20;99.90;;;;;;2612469;54;20404;-72
2021/11/30 05:02:53;;;;;;;9.90;6.90;;;4.20;99.90;;;;;;2613352;54;21025;-73
2021/11/30 05:05:19;;;;;;;5.93;5.20;;;4.30;99.90;;;;;;2612526;54;20950;-73
2021/11/30 05:07:47;;;;;;;11.67;7.27;;;4.40;99.90;;;;;;2612910;47;20439;-72
2021/11/30 05:10:13;;;;;;;9.33;4.97;;;4.40;99.90;;;;;;2613699;54;20400;-73
2021/11/30 05:12:40;;;;;;;9.20;8.30;;;4.40;99.90;;;;;;2613380;54;20411;-72
2021/11/30 05:15:08;;;;;;;8.83;7.93;;;4.50;99.90;;;;;;2613970;39;20819;-72
2021/11/30 05:17:35;;;;;;;8.70;5.77;;;4.50;99.90;;;;;;2614572;39;20547;-71
2021/11/30 05:20:02;;;;;;;7.30;6.57;;;4.50;99.90;;;;;;2613452;54;20487;-72
2021/11/30 05:22:28;;;;;;;6.73;6.10;;;4.50;99.90;;;;;;2614944;54;20399;-73
2021/11/30 05:24:54;;;;;;;8.73;6.27;;;4.60;99.90;;;;;;2612229;54;20423;-73
2021/11/30 05:27:20;;;;;;;12.23;7.23;;;4.60;99.90;;;;;;2613015;54;20399;-72
2021/11/30 05:29:46;;;;;;;12.03;7.70;;;4.60;99.90;;;;;;2613253;54;21300;-73
2021/11/30 05:32:12;;;;;;;8.63;7.60;;;4.60;99.90;;;;;;2614779;54;20462;-72
2021/11/30 05:34:39;;;;;;;8.73;7.80;;;4.70;99.90;;;;;;2613440;39;20872;-72
2021/11/30 05:37:06;;;;;;;13.30;8.90;;;4.70;99.90;;;;;;2612222;47;20426;-73
2021/11/30 05:39:32;;;;;;;9.40;8.50;;;4.80;99.90;;;;;;2613228;54;20412;-73
2021/11/30 05:41:58;;;;;;;10.93;8.23;;;4.80;99.90;;;;;;2614597;39;20808;-74
2021/11/30 05:44:24;;;;;;;8.23;7.00;;;4.90;99.90;;;;;;2612690;47;20514;-73
2021/11/30 05:46:50;;;;;;;10.00;8.13;;;4.90;99.90;;;;;;2614727;39;20558;-72
2021/11/30 05:49:18;;;;;;;12.37;7.70;;;4.90;99.90;;;;;;2613316;54;20165;-72
2021/11/30 05:51:43;;;;;;;9.07;6.70;;;4.90;99.90;;;;;;2614006;39;21041;-72
2021/11/30 05:54:09;;;;;;;24.93;6.17;;;4.90;99.90;;;;;;2613391;54;20393;-73
2021/11/30 05:56:35;;;;;;;12.73;8.70;;;4.90;99.90;;;;;;2614797;54;20161;-74
2021/11/30 05:59:02;;;;;;;10.53;6.67;;;5.00;99.90;;;;;;2613858;54;20155;-72
2021/11/30 06:01:31;;;;;;;8.33;6.77;;;5.00;99.90;;;;;;2614257;54;20469;-71
2021/11/30 06:04:00;;;;;;;8.17;6.23;;;5.10;99.90;;;;;;2611465;54;20407;-73
2021/11/30 06:06:34;;;;;;;13.50;5.57;;;5.10;99.90;;;;;;2613979;39;21359;-72
2021/11/30 06:09:01;;;;;;;8.33;5.60;;;5.10;99.90;;;;;;2612436;54;20427;-73
2021/11/30 06:11:27;;;;;;;6.57;5.97;;;5.10;99.90;;;;;;2613080;54;20414;-72
2021/11/30 06:13:53;;;;;;;8.90;6.13;;;5.20;99.90;;;;;;2611503;54;20416;-74
2021/11/30 06:16:21;;;;;;;5.77;5.17;;;5.20;99.90;;;;;;2615465;31;20895;-74
2021/11/30 06:18:47;;;;;;;6.90;6.20;;;5.20;99.90;;;;;;2612149;47;21003;-73
2021/11/30 06:21:14;;;;;;;7.03;6.30;;;5.30;99.90;;;;;;2615672;39;20719;-74
2021/11/30 06:23:41;;;;;;;6.60;5.20;;;5.30;99.90;;;;;;2611835;54;20515;-74
2021/11/30 06:26:08;;;;;;;6.83;6.17;;;5.30;99.90;;;;;;2612685;54;20424;-72
2021/11/30 06:28:35;;;;;;;5.53;4.93;;;5.30;99.90;;;;;;2611447;54;20456;-72
2021/11/30 06:31:01;;;;;;;7.63;6.87;;;5.40;99.90;;;;;;2611258;54;20971;-73
2021/11/30 06:33:27;;;;;;;5.27;4.37;;;5.40;99.90;;;;;;2611645;54;20459;-73
2021/11/30 06:35:53;;;;;;;9.00;5.40;;;5.40;99.90;;;;;;2612907;54;20406;-72
2021/11/30 06:38:19;;;;;;;7.07;6.47;;;5.50;99.90;;;;;;2612520;46;20178;-73
2021/11/30 06:40:45;;;;;;;11.40;7.20;;;5.50;99.90;;;;;;2613239;54;20420;-73
2021/11/30 06:43:11;;;;;;;9.10;6.40;;;5.60;99.90;;;;;;2612731;46;21112;-73
2021/11/30 06:45:37;;;;;;;6.07;4.90;;;5.60;99.90;;;;;;2612230;47;20182;-72
2021/11/30 06:48:04;;;;;;;9.53;7.33;;;5.60;99.90;;;;;;2612612;54;20832;-73
2021/11/30 06:50:29;;;;;;;8.27;6.70;;;5.60;99.90;;;;;;2611905;54;20487;-74
2021/11/30 06:52:55;;;;;;;10.70;6.60;;;5.70;99.90;;;;;;2610047;39;20881;-72
2021/11/30 06:55:21;;;;;;;5.33;4.83;;;5.70;99.90;;;;;;2612378;54;20470;-72
2021/11/30 06:57:47;;;;;;;8.90;6.63;;;5.80;99.90;;;;;;2612798;54;20425;-73
2021/11/30 07:00:16;;;;;;;8.97;6.57;;;5.80;99.90;;;;;;2612050;47;20443;-73
2021/11/30 07:02:44;;;;;;;9.60;8.30;;;5.90;99.90;;;;;;2612667;54;20159;-72
2021/11/30 07:05:18;;;;;;;10.03;8.00;;;5.90;99.90;;;;;;2611220;47;20435;-73
2021/11/30 07:10:41;;;;;;;9.80;7.77;;;6.10;99.90;;;;;;2612038;46;20459;-73
2021/11/30 07:13:22;;;;;;;9.70;8.60;;;6.10;99.90;;;;;;2612428;54;20398;-74
2021/11/30 07:15:56;;;;;;;12.93;9.30;;;6.20;99.90;;;;;;2613071;54;20391;-72
2021/11/30 07:18:23;;;;;;;12.07;9.20;;;6.20;99.90;;;;;;2610845;54;20422;-76
2021/11/30 07:20:50;;;;;;;12.47;9.17;;;6.30;99.90;;;;;;2612783;54;20968;-74
2021/11/30 07:23:16;;;;;;;14.00;10.33;;;6.30;99.90;;;;;;2611138;54;20477;-74
2021/11/30 07:25:43;;;;;;;14.13;9.97;;;6.40;99.90;;;;;;2611510;54;20425;-73
2021/11/30 07:28:09;;;;;;;12.07;8.80;;;6.50;99.90;;;;;;2612663;54;20412;-75
2021/11/30 07:30:35;;;;;;;11.87;6.43;;;6.50;99.90;;;;;;2613621;39;20810;-74
2021/11/30 07:33:02;;;;;;;11.70;8.03;;;6.60;99.90;;;;;;2610319;54;21108;-74
2021/11/30 07:35:29;;;;;;;8.97;8.07;;;6.60;99.90;;;;;;2612429;46;20426;-73
2021/11/30 07:37:55;;;;;;;9.57;7.07;;;6.70;99.90;;;;;;2609909;54;20420;-75
2021/11/30 07:40:22;;;;;;;9.27;7.20;;;6.80;99.90;;;;;;2613179;54;20459;-73
2021/11/30 07:42:48;;;;;;;8.77;6.00;;;6.90;99.90;;;;;;2611081;54;20446;-76
2021/11/30 07:45:14;;;;;;;14.90;10.60;;;6.90;99.90;;;;;;2610969;54;20396;-76
2021/11/30 07:47:40;;;;;;;7.40;5.90;;;6.90;99.90;;;;;;2612088;54;20154;-74
2021/11/30 07:50:08;;;;;;;7.27;6.57;;;7.00;99.90;;;;;;2612301;39;20785;-73
2021/11/30 07:52:42;;;;;;;7.07;5.70;;;7.00;99.90;;;;;;2609460;54;20431;-74
2021/11/30 07:55:14;;;;;;;12.57;7.47;;;7.10;99.90;;;;;;2610351;47;20434;-75
2021/11/30 07:57:40;;;;;;;10.67;8.17;;;7.10;99.90;;;;;;2612220;39;20893;-73
2021/11/30 08:00:11;;;;;;;12.93;10.60;;;7.10;99.90;;;;;;2612504;54;20436;-73
2021/11/30 08:02:40;;;;;;;6.40;5.67;;;7.20;99.90;;;;;;2613056;54;20396;-75
2021/11/30 08:05:07;;;;;;;9.10;8.00;;;7.20;99.90;;;;;;2609978;54;20505;-75
2021/11/30 08:07:36;;;;;;;9.10;7.30;;;7.20;99.90;;;;;;2614014;54;20400;-73
2021/11/30 08:10:08;;;;;;;11.20;8.60;;;7.10;99.90;;;;;;2612499;54;20483;-73
2021/11/30 08:12:34;;;;;;;11.90;9.80;;;7.20;99.90;;;;;;2614201;54;21009;-73
2021/11/30 08:15:03;;;;;;;6.73;6.03;;;7.30;99.90;;;;;;2612920;54;20424;-74
2021/11/30 08:17:29;;;;;;;11.73;8.10;;;7.30;99.90;;;;;;2612736;54;20425;-73
2021/11/30 08:19:57;;;;;;;6.83;6.13;;;7.30;99.90;;;;;;2611645;54;20407;-74
2021/11/30 08:22:26;;;;;;;8.00;6.00;;;7.30;99.90;;;;;;2611299;47;20427;-74
2021/11/30 08:24:56;;;;;;;8.90;7.20;;;7.30;99.90;;;;;;2612411;47;20431;-72
2021/11/30 08:27:23;;;;;;;8.33;6.37;;;7.30;99.90;;;;;;2612391;47;20419;-73
2021/11/30 08:29:50;;;;;;;6.73;5.87;;;7.30;99.90;;;;;;2610481;51;20428;-74
2021/11/30 08:32:22;;;;;;;6.97;6.27;;;7.30;99.90;;;;;;2612162;54;21003;-77
2021/11/30 08:34:57;;;;;;;9.17;6.47;;;7.40;99.90;;;;;;2611122;47;20435;-76
2021/11/30 08:37:24;;;;;;;6.17;5.57;;;7.40;99.90;;;;;;2612727;47;20418;-74
2021/11/30 08:39:52;;;;;;;6.97;6.10;;;7.40;99.90;;;;;;2612497;47;20411;-74
2021/11/30 08:42:22;;;;;;;5.70;4.50;;;7.40;99.90;;;;;;2613542;54;20424;-75
2021/11/30 08:44:56;;;;;;;8.00;5.60;;;7.40;99.90;;;;;;2611531;54;20760;-76
2021/11/30 08:47:27;;;;;;;6.40;4.67;;;7.50;99.90;;;;;;2613278;54;20396;-73
2021/11/30 08:49:56;;;;;;;5.13;4.43;;;7.50;99.90;;;;;;2611769;54;21309;-74
2021/11/30 08:52:28;;;;;;;7.67;4.53;;;7.50;99.90;;;;;;2612508;47;20560;-74
2021/11/30 08:54:57;;;;;;;5.60;4.17;;;7.60;99.90;;;;;;2612564;54;20412;-74
2021/11/30 08:57:26;;;;;;;5.00;4.50;;;7.60;99.90;;;;;;2613090;47;20478;-75
2021/11/30 08:59:52;;;;;;;3.67;3.37;;;7.60;99.90;;;;;;2612152;54;20408;-74
2021/11/30 09:02:20;;;;;;;4.93;4.43;;;7.70;99.90;;;;;;2611540;54;21022;-75
2021/11/30 09:04:47;;;;;;;3.03;2.83;;;7.70;99.90;;;;;;2612957;54;20403;-75
2021/11/30 09:07:17;;;;;;;5.27;3.60;;;7.70;99.90;;;;;;2612383;54;20427;-73
2021/11/30 09:09:48;;;;;;;5.80;3.63;;;7.70;99.90;;;;;;2612148;54;20423;-75
2021/11/30 09:12:15;;;;;;;3.67;3.33;;;7.70;99.90;;;;;;2613137;39;20809;-74
2021/11/30 09:14:41;;;;;;;8.03;4.30;;;7.70;99.90;;;;;;2613171;54;20412;-73
2021/11/30 09:17:09;;;;;;;5.37;3.50;;;7.80;99.90;;;;;;2611383;47;20423;-73
2021/11/30 09:19:35;;;;;;;5.27;4.77;;;7.80;99.90;;;;;;2611918;54;20455;-74
2021/11/30 09:22:04;;;;;;;4.10;3.77;;;7.80;99.90;;;;;;2613753;54;20535;-75
2021/11/30 09:24:33;;;;;;;4.13;3.43;;;7.80;99.90;;;;;;2611198;47;20416;-75
2021/11/30 09:26:59;;;;;;;3.47;3.17;;;7.80;99.90;;;;;;2611458;54;21047;-73
2021/11/30 09:29:25;;;;;;;4.20;3.80;;;7.80;99.90;;;;;;2611038;54;20531;-73
2021/11/30 09:31:54;;;;;;;4.93;4.47;;;7.80;99.90;;;;;;2610795;39;20781;-74
2021/11/30 09:34:20;;;;;;;3.70;3.40;;;7.90;99.90;;;;;;2611345;54;20408;-75
2021/11/30 09:36:48;;;;;;;4.60;4.20;;;7.90;99.90;;;;;;2613657;54;20419;-73
2021/11/30 09:39:15;;;;;;;6.17;5.60;;;7.90;99.90;;;;;;2613635;39;20855;-74
2021/11/30 09:41:44;;;;;;;5.20;3.90;;;7.90;99.90;;;;;;2613035;54;20436;-74
2021/11/30 09:44:11;;;;;;;4.20;3.80;;;7.90;99.90;;;;;;2613234;54;20419;-75
2021/11/30 09:46:38;;;;;;;4.03;3.63;;;8.00;99.90;;;;;;2613814;47;20408;-73
2021/11/30 09:49:05;;;;;;;6.70;5.53;;;7.90;99.90;;;;;;2612587;39;20985;-74
2021/11/30 09:51:31;;;;;;;5.40;4.70;;;8.00;99.90;;;;;;2612064;39;20808;-74
2021/11/30 09:53:57;;;;;;;6.83;6.17;;;8.00;99.90;;;;;;2613683;47;20410;-74
2021/11/30 09:56:24;;;;;;;9.57;7.40;;;8.00;99.90;;;;;;2612375;47;20439;-73
2021/11/30 09:58:51;;;;;;;6.07;5.47;;;8.00;99.90;;;;;;2612586;47;20474;-74
2021/11/30 10:01:18;;;;;;;3.73;3.33;;;8.10;99.90;;;;;;2612465;46;20430;-75
2021/11/30 10:03:46;;;;;;;4.83;4.33;;;8.10;99.90;;;;;;2612614;54;20472;-74
2021/11/30 10:06:13;;;;;;;4.27;3.87;;;8.10;99.90;;;;;;2612901;46;20458;-73
2021/11/30 10:08:42;;;;;;;6.63;5.90;;;8.10;99.90;;;;;;2612822;54;20427;-75
2021/11/30 10:11:36;;;;;;;6.80;6.00;;;8.10;99.90;;;;;;2611118;54;20535;-73
2021/11/30 10:14:10;;;;;;;3.53;3.23;;;8.10;99.90;;;;;;2610227;54;20435;-74
2021/11/30 10:16:39;;;;;;;4.10;3.10;;;8.10;99.90;;;;;;2610083;54;20474;-74
2021/11/30 10:19:08;;;;;;;5.20;4.63;;;8.20;99.90;;;;;;2611955;54;20407;-74
2021/11/30 10:21:35;;;;;;;5.27;4.77;;;8.20;99.90;;;;;;2611833;54;20420;-74
2021/11/30 10:24:04;;;;;;;5.20;4.70;;;8.20;99.90;;;;;;2610905;54;20538;-74
2021/11/30 10:26:35;;;;;;;6.17;5.13;;;8.20;99.90;;;;;;2611098;54;20396;-73
2021/11/30 10:29:08;;;;;;;3.87;3.50;;;8.20;99.90;;;;;;2612060;54;20408;-73
2021/11/30 10:31:39;;;;;;;4.23;3.93;;;8.20;99.90;;;;;;2611908;54;21073;-73
2021/11/30 10:34:13;;;;;;;4.73;4.17;;;8.20;99.90;;;;;;2611175;47;20423;-75
2021/11/30 10:36:48;;;;;;;4.90;3.80;;;8.20;99.90;;;;;;2611820;47;20430;-73
2021/11/30 10:39:23;;;;;;;6.07;5.47;;;8.30;99.90;;;;;;2611456;47;20421;-75
2021/11/30 10:41:51;;;;;;;4.87;4.20;;;8.30;99.90;;;;;;2610624;39;20844;-75
2021/11/30 10:44:31;;;;;;;4.83;4.30;;;8.30;99.90;;;;;;2612538;54;20948;-76
2021/11/30 10:47:27;;;;;;;6.47;4.70;;;8.40;99.90;;;;;;2610819;54;20450;-74
2021/11/30 10:50:05;;;;;;;8.20;7.00;;;8.40;99.90;;;;;;2609870;54;20421;-74
2021/11/30 10:52:33;;;;;;;6.17;5.47;;;8.40;99.90;;;;;;2613700;54;20396;-74
2021/11/30 10:55:06;;;;;;;7.93;6.60;;;8.40;99.90;;;;;;2611845;54;20412;-75
2021/11/30 10:57:33;;;;;;;5.50;5.00;;;8.50;99.90;;;;;;2612512;54;20400;-74
2021/11/30 11:00:24;;;;;;;5.07;4.57;;;8.50;99.90;;;;;;2612632;54;20506;-73
2021/11/30 11:03:03;;;;;;;6.80;5.03;;;8.50;99.90;;;;;;2613252;54;20403;-73
2021/11/30 11:05:31;;;;;;;4.30;3.80;;;8.60;99.90;;;;;;2611650;54;20403;-74
2021/11/30 11:08:03;;;;;;;8.33;6.60;;;8.70;99.90;;;;;;2612915;54;20407;-76
2021/11/30 11:10:29;;;;;;;4.57;3.93;;;8.70;99.90;;;;;;2613980;54;20427;-74
2021/11/30 11:12:55;;;;;;;3.30;3.07;;;8.70;99.90;;;;;;2612954;47;20436;-74
2021/11/30 11:15:40;;;;;;;6.80;4.80;;;8.70;99.90;;;;;;2613737;54;20418;-74
2021/11/30 11:18:21;;;;;;;5.80;4.80;;;8.80;99.90;;;;;;2614339;54;20942;-73
2021/11/30 11:20:48;;;;;;;5.77;3.40;;;8.80;99.90;;;;;;2612362;54;20996;-74
2021/11/30 11:23:25;;;;;;;4.63;4.00;;;8.80;99.90;;;;;;2613388;54;20421;-73
2021/11/30 11:25:53;;;;;;;5.20;3.20;;;8.80;99.90;;;;;;2612486;47;20415;-75
2021/11/30 11:28:23;;;;;;;4.60;4.20;;;8.90;99.90;;;;;;2613500;47;20432;-74
2021/11/30 11:30:50;;;;;;;4.80;3.50;;;8.90;99.90;;;;;;2613170;54;20959;-73
2021/11/30 11:33:17;;;;;;;4.93;4.40;;;8.90;99.90;;;;;;2613801;54;20443;-75
2021/11/30 11:35:44;;;;;;;3.97;3.60;;;8.90;99.90;;;;;;2613095;54;20510;-76
2021/11/30 11:38:11;;;;;;;6.80;6.20;;;8.90;99.90;;;;;;2613126;54;20459;-75
2021/11/30 11:40:37;;;;;;;5.13;4.60;;;9.00;99.90;;;;;;2613324;47;20423;-74
2021/11/30 11:43:03;;;;;;;13.10;7.80;;;9.00;99.90;;;;;;2613385;54;20419;-74
2021/11/30 11:45:30;;;;;;;10.37;8.57;;;9.10;99.90;;;;;;2614045;47;20435;-74
2021/11/30 11:48:06;;;;;;;4.43;3.50;;;9.40;99.90;;;;;;2613124;54;20404;-73
2021/11/30 11:50:50;;;;;;;3.40;2.90;;;9.20;99.90;;;;;;2614561;54;20468;-73
2021/11/30 11:53:23;;;;;;;3.07;2.77;;;9.20;99.90;;;;;;2612053;54;20431;-75
2021/11/30 11:56:09;;;;;;;4.23;3.33;;;9.20;99.90;;;;;;2613276;54;20408;-73
2021/11/30 11:58:36;;;;;;;3.57;3.23;;;9.10;99.90;;;;;;2613530;46;20439;-74
2021/11/30 12:01:05;;;;;;;5.43;4.20;;;9.20;99.90;;;;;;2613099;54;20453;-72
2021/11/30 12:03:58;;;;;;;6.10;5.50;;;9.10;99.90;;;;;;2612539;46;20422;-76
2021/11/30 12:06:29;;;;;;;4.83;4.30;;;9.10;99.90;;;;;;2610066;54;20427;-74
2021/11/30 12:09:18;;;;;;;5.83;5.33;;;9.00;99.90;;;;;;2612724;54;20434;-74
2021/11/30 12:11:51;;;;;;;3.90;3.60;;;9.00;99.90;;;;;;2612423;51;20455;-75
2021/11/30 12:14:37;;;;;;;2.70;2.50;;;9.10;99.90;;;;;;2611080;54;20427;-75
2021/11/30 12:17:23;;;;;;;2.83;2.63;;;9.10;99.90;;;;;;2611513;54;20402;-75
2021/11/30 12:19:57;;;;;;;2.67;2.47;;;9.00;99.90;;;;;;2612565;47;20435;-76
2021/11/30 12:22:57;;;;;;;2.13;1.93;;;9.00;99.90;;;;;;2613804;54;20396;-74
2021/11/30 12:25:25;;;;;;;6.57;6.03;;;9.10;99.90;;;;;;2613128;54;20419;-73
2021/11/30 12:28:03;;;;;;;3.33;2.63;;;9.00;99.90;;;;;;2611152;47;20439;-73
2021/11/30 12:30:36;;;;;;;3.30;2.97;;;9.10;99.90;;;;;;2611804;54;20490;-74
2021/11/30 12:33:05;;;;;;;4.27;3.87;;;9.10;99.90;;;;;;2612724;54;20455;-72
2021/11/30 12:35:56;;;;;;;3.33;1.93;;;9.20;99.90;;;;;;2612541;54;20446;-74
2021/11/30 12:38:28;;;;;;;3.10;2.00;;;9.10;99.90;;;;;;2612402;54;20408;-74
2021/11/30 12:40:57;;;;;;;3.20;2.07;;;9.10;99.90;;;;;;2612102;54;20439;-74
2021/11/30 12:43:28;;;;;;;1.57;1.47;;;9.30;99.90;;;;;;2612434;54;20530;-74
2021/11/30 12:46:17;;;;;;;2.73;1.63;;;9.00;99.90;;;;;;2613329;54;20442;-74
2021/11/30 12:48:52;;;;;;;2.63;1.70;;;9.10;99.90;;;;;;2611096;54;20403;-73
2021/11/30 12:51:22;;;;;;;3.27;1.67;;;9.20;99.90;;;;;;2643193;36;21014;-73
2021/11/30 12:53:48;;;;;;;1.70;1.60;;;9.30;99.90;;;;;;2612561;54;20450;-73
2021/11/30 12:56:34;;;;;;;1.30;1.20;;;9.20;99.90;;;;;;2612603;54;20403;-74
2021/11/30 12:58:59;;;;;;;2.10;1.90;;;9.10;99.90;;;;;;2612323;54;21403;-73
2021/11/30 13:01:26;;;;;;;2.27;2.07;;;9.00;99.90;;;;;;2612167;47;20420;-73
2021/11/30 13:04:31;;;;;;;4.30;3.90;;;9.10;99.90;;;;;;2612631;54;20166;-74
2021/11/30 13:07:16;;;;;;;8.17;7.47;;;9.10;99.90;;;;;;2612337;54;20427;-73
2021/11/30 13:09:46;;;;;;;4.83;4.37;;;9.10;99.90;;;;;;2612978;47;20416;-73
2021/11/30 13:12:18;;;;;;;5.67;4.50;;;9.00;99.90;;;;;;2613454;31;20885;-74
2021/11/30 13:14:46;;;;;;;8.17;7.00;;;9.00;99.90;;;;;;2612319;54;20411;-72
2021/11/30 13:17:14;;;;;;;8.33;6.67;;;9.00;99.90;;;;;;2612052;54;20402;-73